Time;durP1;ratioP1;P1;durP2;ratioP2;P2;SDS_P1;SDS_P2;PMS_P1;PMS_P2;Temp;Humidity;BMP_temperature;BMP_pressure;BME280_temperature;BME280_humidity;BME280_pressure;Samples;Min_cycle;Max_cycle;Signal;HPM_P1;HPM_P2
2021/03/31 00:00:41;;;;;;;12.32;10.88;;;7.20;75.30;;;;;;5088459;28;20054;-70
2021/03/31 00:03:10;;;;;;;15.07;10.95;;;7.20;75.60;;;;;;5089951;28;20035;-71
2021/03/31 00:05:36;;;;;;;14.40;11.00;;;7.10;76.00;;;;;;5090481;28;20071;-71
2021/03/31 00:08:02;;;;;;;13.38;11.02;;;7.20;76.20;;;;;;5089817;28;20070;-71
2021/03/31 00:10:34;;;;;;;12.95;11.55;;;7.20;76.30;;;;;;5090605;28;20127;-70
2021/03/31 00:12:59;;;;;;;14.35;11.32;;;7.10;75.30;;;;;;5089779;28;20111;-71
2021/03/31 00:15:26;;;;;;;14.93;11.18;;;7.10;76.10;;;;;;5087771;28;20032;-71
2021/03/31 00:17:52;;;;;;;16.73;12.50;;;7.00;76.90;;;;;;5076903;28;20036;-71
2021/03/31 00:20:18;;;;;;;13.63;11.38;;;7.00;77.00;;;;;;5093157;28;20168;-70
2021/03/31 00:22:44;;;;;;;15.30;12.80;;;7.00;77.40;;;;;;5093547;28;20044;-71
2021/03/31 00:25:12;;;;;;;15.90;11.68;;;7.00;77.20;;;;;;5096423;22;20049;-65
2021/03/31 00:27:37;;;;;;;18.30;13.50;;;7.00;77.80;;;;;;5061857;28;20041;-66
2021/03/31 00:30:06;;;;;;;16.35;14.25;;;7.00;78.30;;;;;;5065209;28;20470;-66
2021/03/31 00:32:31;;;;;;;17.73;14.85;;;7.00;78.50;;;;;;5073879;28;20060;-68
2021/03/31 00:34:57;;;;;;;16.08;13.20;;;7.10;78.50;;;;;;5072599;28;20067;-68
2021/03/31 00:37:23;;;;;;;17.45;13.40;;;7.10;78.80;;;;;;5070850;28;20378;-66
2021/03/31 00:39:48;;;;;;;15.57;13.43;;;7.10;78.50;;;;;;5072245;28;20094;-66
2021/03/31 00:42:14;;;;;;;18.67;13.25;;;7.10;78.20;;;;;;5067451;28;20108;-66
2021/03/31 00:44:39;;;;;;;18.20;14.15;;;7.10;77.80;;;;;;5072536;28;20049;-66
2021/03/31 00:47:05;;;;;;;22.45;17.60;;;7.10;78.80;;;;;;5073433;28;20037;-66
2021/03/31 00:49:32;;;;;;;21.00;16.20;;;7.10;79.90;;;;;;5071797;28;20747;-66
2021/03/31 00:51:58;;;;;;;20.30;16.15;;;7.10;80.20;;;;;;5073115;28;20040;-66
2021/03/31 00:54:24;;;;;;;22.23;16.77;;;7.10;79.90;;;;;;5072572;28;20347;-66
2021/03/31 00:56:50;;;;;;;21.65;13.85;;;7.10;79.40;;;;;;5072365;28;20051;-66
2021/03/31 00:59:15;;;;;;;23.48;17.05;;;7.10;78.20;;;;;;5070739;28;20497;-66
2021/03/31 01:01:41;;;;;;;18.35;15.85;;;7.10;78.70;;;;;;5072291;28;20032;-66
2021/03/31 01:04:06;;;;;;;18.55;14.63;;;7.10;78.90;;;;;;5071784;28;20089;-66
2021/03/31 01:06:32;;;;;;;17.88;14.60;;;7.10;79.30;;;;;;5069269;28;20032;-66
2021/03/31 01:08:58;;;;;;;17.45;14.13;;;7.00;78.20;;;;;;5071168;28;20128;-66
2021/03/31 01:11:55;;;;;;;20.60;15.98;;;7.00;78.30;;;;;;5070435;28;20440;-66
2021/03/31 01:14:49;;;;;;;21.00;15.32;;;7.00;79.50;;;;;;5072324;28;20090;-66
2021/03/31 01:17:27;;;;;;;20.52;16.05;;;7.00;79.90;;;;;;5072753;28;20044;-66
2021/03/31 01:20:34;;;;;;;22.55;16.40;;;6.90;80.70;;;;;;5070129;28;20040;-66
2021/03/31 01:23:35;;;;;;;19.58;16.40;;;6.80;80.30;;;;;;5071939;28;20049;-66
2021/03/31 01:26:13;;;;;;;19.70;15.82;;;6.80;80.80;;;;;;5067514;28;20577;-66
2021/03/31 01:28:45;;;;;;;20.58;16.52;;;6.80;80.80;;;;;;5072302;28;20051;-66
2021/03/31 01:31:35;;;;;;;20.48;16.13;;;6.80;80.80;;;;;;5070610;28;20040;-66
2021/03/31 01:34:09;;;;;;;25.85;18.77;;;6.70;79.90;;;;;;5068285;28;20028;-66
2021/03/31 01:36:36;;;;;;;22.67;17.38;;;6.70;81.20;;;;;;5069008;28;20075;-66
2021/03/31 01:39:06;;;;;;;23.70;17.98;;;6.60;81.50;;;;;;5071492;28;20044;-66
2021/03/31 01:41:35;;;;;;;26.02;18.75;;;6.50;82.80;;;;;;5069352;28;20044;-68
2021/03/31 01:44:02;;;;;;;21.65;17.77;;;6.50;83.10;;;;;;5069660;28;20044;-66
2021/03/31 01:46:32;;;;;;;25.30;18.48;;;6.50;82.80;;;;;;5072134;28;20037;-66
2021/03/31 01:49:02;;;;;;;26.08;18.95;;;6.40;82.30;;;;;;5071164;28;20040;-66
2021/03/31 01:51:30;;;;;;;23.30;17.13;;;6.40;81.80;;;;;;5071751;28;20043;-66
2021/03/31 01:53:57;;;;;;;23.95;17.80;;;6.40;81.80;;;;;;5071280;28;20482;-66
2021/03/31 01:56:25;;;;;;;23.50;17.70;;;6.40;82.10;;;;;;5071034;28;20029;-66
2021/03/31 01:58:53;;;;;;;19.95;16.00;;;6.40;81.70;;;;;;5070502;28;20036;-66
2021/03/31 02:01:21;;;;;;;22.25;17.48;;;6.40;81.30;;;;;;5059701;28;20074;-66
2021/03/31 02:03:50;;;;;;;25.70;17.75;;;6.40;82.30;;;;;;5070481;28;20040;-66
2021/03/31 02:06:17;;;;;;;23.23;18.02;;;6.40;82.50;;;;;;5072212;28;20044;-66
2021/03/31 02:08:44;;;;;;;22.92;17.50;;;6.30;83.20;;;;;;5067743;28;20048;-66
2021/03/31 02:11:11;;;;;;;22.83;18.83;;;6.40;83.40;;;;;;5069420;28;20580;-66
2021/03/31 02:13:37;;;;;;;22.80;16.77;;;6.40;83.50;;;;;;5069589;28;20036;-66
2021/03/31 02:16:03;;;;;;;21.85;17.63;;;6.40;82.60;;;;;;5071346;28;20705;-66
2021/03/31 02:18:32;;;;;;;26.85;18.65;;;6.40;82.60;;;;;;5071041;28;20051;-66
2021/03/31 02:20:58;;;;;;;26.40;19.42;;;6.40;82.30;;;;;;5070442;28;20059;-66
2021/03/31 02:23:27;;;;;;;22.92;17.77;;;6.50;82.80;;;;;;5069226;28;20049;-66
2021/03/31 02:25:53;;;;;;;25.15;18.25;;;6.40;82.50;;;;;;5070837;28;20054;-66
2021/03/31 02:28:19;;;;;;;24.92;17.85;;;6.50;81.80;;;;;;5071407;28;20291;-66
2021/03/31 02:30:45;;;;;;;24.80;18.45;;;6.50;82.00;;;;;;5071520;28;20039;-66
2021/03/31 02:33:11;;;;;;;26.80;20.30;;;6.40;82.60;;;;;;5069790;28;20346;-66
2021/03/31 02:35:40;;;;;;;24.90;18.85;;;6.40;83.70;;;;;;5068332;28;20058;-66
2021/03/31 02:38:08;;;;;;;24.35;18.67;;;6.40;82.90;;;;;;5069233;28;20033;-66
2021/03/31 02:40:36;;;;;;;22.92;19.42;;;6.40;82.50;;;;;;5069866;28;20055;-66
2021/03/31 02:43:03;;;;;;;27.63;18.92;;;6.40;82.30;;;;;;5067231;28;20048;-66
2021/03/31 02:45:30;;;;;;;25.02;18.38;;;6.40;82.80;;;;;;5070444;28;20043;-66
2021/03/31 02:48:00;;;;;;;27.02;19.15;;;6.40;83.50;;;;;;5071197;28;20041;-66
2021/03/31 02:50:28;;;;;;;25.40;19.75;;;6.40;83.40;;;;;;5069143;28;20033;-66
2021/03/31 02:52:53;;;;;;;26.02;19.73;;;6.30;83.60;;;;;;5071054;28;20035;-66
2021/03/31 02:55:22;;;;;;;28.30;20.90;;;6.20;84.20;;;;;;5069319;28;20036;-66
2021/03/31 02:57:48;;;;;;;29.60;21.27;;;6.20;84.10;;;;;;5069964;28;20050;-66
2021/03/31 03:00:15;;;;;;;25.23;19.17;;;6.20;83.90;;;;;;5070473;28;20032;-66
2021/03/31 03:02:43;;;;;;;26.67;20.73;;;6.20;83.00;;;;;;5071400;28;20478;-66
2021/03/31 03:05:11;;;;;;;31.92;21.65;;;6.20;82.70;;;;;;5070489;28;20060;-66
2021/03/31 03:07:38;;;;;;;29.25;21.08;;;6.20;83.40;;;;;;5070328;28;20115;-66
2021/03/31 03:10:06;;;;;;;27.35;21.27;;;6.10;83.90;;;;;;5069164;28;20121;-66
2021/03/31 03:12:36;;;;;;;30.17;21.80;;;6.10;83.90;;;;;;5071031;28;20033;-66
2021/03/31 03:15:03;;;;;;;31.52;22.67;;;6.00;84.30;;;;;;5067731;28;20036;-66
2021/03/31 03:17:28;;;;;;;29.13;22.05;;;5.90;85.10;;;;;;5068880;28;20052;-66
2021/03/31 03:19:54;;;;;;;29.77;21.23;;;5.90;84.70;;;;;;5069464;28;20036;-66
2021/03/31 03:22:20;;;;;;;26.63;20.98;;;5.90;84.90;;;;;;5070031;28;20086;-66
2021/03/31 03:24:48;;;;;;;28.98;21.58;;;5.90;84.60;;;;;;5068196;28;20482;-66
2021/03/31 03:27:16;;;;;;;28.15;20.52;;;5.80;85.10;;;;;;5067957;28;20059;-67
2021/03/31 03:29:46;;;;;;;27.90;21.20;;;5.80;85.00;;;;;;5060683;28;20048;-67
2021/03/31 03:32:14;;;;;;;27.70;20.83;;;5.80;85.00;;;;;;5070041;28;20602;-67
2021/03/31 03:34:40;;;;;;;25.83;20.40;;;5.90;84.20;;;;;;5070862;28;20039;-67
2021/03/31 03:37:06;;;;;;;27.02;19.98;;;5.80;83.60;;;;;;5070231;28;20067;-67
2021/03/31 03:39:32;;;;;;;28.15;20.67;;;5.80;83.30;;;;;;5069257;28;20486;-67
2021/03/31 03:41:57;;;;;;;28.30;21.75;;;5.90;83.50;;;;;;5069282;28;20094;-67
2021/03/31 03:44:23;;;;;;;26.08;21.17;;;5.80;83.70;;;;;;5069911;28;20024;-67
2021/03/31 03:46:53;;;;;;;29.90;21.20;;;5.80;83.50;;;;;;5068618;28;20087;-67
2021/03/31 03:49:19;;;;;;;28.83;21.42;;;5.80;84.00;;;;;;5073164;28;20040;-67
2021/03/31 03:51:45;;;;;;;28.65;21.23;;;5.80;83.50;;;;;;5073640;28;20166;-67
2021/03/31 03:54:11;;;;;;;29.80;21.55;;;5.70;83.50;;;;;;5073452;28;20036;-67
2021/03/31 03:56:37;;;;;;;26.95;20.75;;;5.70;83.10;;;;;;5072816;28;20040;-67
2021/03/31 03:59:20;;;;;;;25.88;20.20;;;5.70;83.30;;;;;;5072875;28;20086;-67
2021/03/31 04:01:46;;;;;;;30.20;21.98;;;5.70;83.60;;;;;;5072637;28;20029;-67
2021/03/31 04:04:12;;;;;;;26.75;22.02;;;5.60;84.00;;;;;;5073915;28;20036;-67
2021/03/31 04:06:38;;;;;;;30.05;21.40;;;5.60;84.00;;;;;;5070529;28;20539;-67
2021/03/31 04:09:04;;;;;;;27.23;20.58;;;5.50;84.20;;;;;;5073211;28;20090;-67
2021/03/31 04:11:30;;;;;;;28.65;21.67;;;5.50;83.80;;;;;;5071236;28;20036;-67
2021/03/31 04:14:02;;;;;;;28.30;21.52;;;5.50;83.20;;;;;;5073174;28;20382;-67
2021/03/31 04:16:33;;;;;;;25.42;21.17;;;5.50;84.20;;;;;;5073112;28;20036;-67
2021/03/31 04:19:15;;;;;;;31.27;22.60;;;5.50;83.50;;;;;;5072276;28;20036;-67
2021/03/31 04:21:41;;;;;;;26.90;21.50;;;5.50;84.50;;;;;;5072376;28;20793;-67
2021/03/31 04:24:14;;;;;;;29.45;20.77;;;5.40;83.90;;;;;;5072298;28;20374;-67
2021/03/31 04:26:41;;;;;;;27.20;20.83;;;5.40;83.10;;;;;;5072884;28;20818;-67
2021/03/31 04:29:08;;;;;;;25.17;20.52;;;5.40;83.40;;;;;;5070421;28;20036;-67
2021/03/31 04:31:36;;;;;;;26.67;21.17;;;5.40;83.40;;;;;;5073039;28;20182;-67
2021/03/31 04:34:04;;;;;;;29.52;22.65;;;5.40;83.40;;;;;;5072660;28;20486;-67
2021/03/31 04:36:30;;;;;;;26.80;22.20;;;5.40;83.90;;;;;;5070353;28;20040;-67
2021/03/31 04:38:55;;;;;;;27.52;21.23;;;5.30;83.70;;;;;;5072327;28;20041;-67
2021/03/31 04:41:21;;;;;;;26.15;21.42;;;5.30;84.10;;;;;;5071878;28;20683;-67
2021/03/31 04:43:47;;;;;;;28.42;21.08;;;5.20;85.00;;;;;;5073320;28;20107;-67
2021/03/31 04:46:13;;;;;;;29.65;22.55;;;5.20;83.50;;;;;;5072760;28;20082;-67
2021/03/31 04:48:39;;;;;;;26.98;20.55;;;5.20;84.20;;;;;;5071471;28;20044;-67
2021/03/31 04:51:06;;;;;;;27.60;21.75;;;5.20;83.90;;;;;;5072287;28;20032;-67
2021/03/31 04:53:32;;;;;;;26.58;21.25;;;5.20;84.50;;;;;;5071608;28;20040;-67
2021/03/31 04:55:58;;;;;;;29.40;21.55;;;5.10;84.40;;;;;;5071532;28;20427;-67
2021/03/31 04:58:23;;;;;;;27.95;21.38;;;5.10;85.00;;;;;;5065966;28;20116;-67
2021/03/31 05:00:49;;;;;;;27.60;20.98;;;5.10;84.60;;;;;;5071373;28;20044;-67
2021/03/31 05:03:15;;;;;;;24.95;20.48;;;5.10;83.80;;;;;;5072365;28;20118;-67
2021/03/31 05:05:41;;;;;;;26.65;21.27;;;5.10;83.40;;;;;;5071591;28;20433;-67
2021/03/31 05:08:07;;;;;;;28.35;21.33;;;5.10;83.20;;;;;;5071790;28;20062;-67
2021/03/31 05:10:33;;;;;;;35.58;21.33;;;5.10;83.40;;;;;;5071376;28;20037;-67
2021/03/31 05:12:59;;;;;;;32.35;21.40;;;5.10;83.80;;;;;;5070402;28;20028;-67
2021/03/31 05:15:25;;;;;;;31.42;21.60;;;5.00;83.50;;;;;;5070505;28;20397;-67
2021/03/31 05:17:50;;;;;;;29.88;21.48;;;5.00;84.00;;;;;;5069055;28;20481;-67
2021/03/31 05:20:17;;;;;;;28.67;21.90;;;4.90;85.10;;;;;;5070854;28;20402;-67
2021/03/31 05:22:43;;;;;;;27.75;21.10;;;4.90;84.20;;;;;;5071044;28;20040;-67
2021/03/31 05:25:09;;;;;;;30.27;20.73;;;5.00;83.90;;;;;;5069932;28;20051;-67
2021/03/31 05:27:36;;;;;;;26.92;20.83;;;5.00;84.10;;;;;;5071568;28;20048;-67
2021/03/31 05:30:06;;;;;;;30.77;21.30;;;5.00;84.20;;;;;;5069417;28;20041;-67
2021/03/31 05:32:32;;;;;;;30.63;22.08;;;5.00;84.10;;;;;;5068055;28;20136;-67
2021/03/31 05:34:58;;;;;;;29.10;20.95;;;5.10;84.20;;;;;;5071593;28;20115;-67
2021/03/31 05:37:24;;;;;;;27.08;20.17;;;5.10;84.30;;;;;;5070015;28;20107;-66
2021/03/31 05:39:49;;;;;;;29.92;20.85;;;5.10;83.50;;;;;;5070177;28;20111;-66
2021/03/31 05:42:16;;;;;;;29.38;20.90;;;5.10;84.60;;;;;;5071271;28;20108;-66
2021/03/31 05:44:43;;;;;;;27.33;19.75;;;5.10;84.80;;;;;;5070795;28;20037;-66
2021/03/31 05:47:13;;;;;;;27.98;20.55;;;5.10;84.30;;;;;;5069895;28;20031;-66
2021/03/31 05:49:39;;;;;;;40.83;20.58;;;5.20;84.10;;;;;;5070057;28;20434;-66
2021/03/31 05:52:09;;;;;;;25.50;20.02;;;5.20;84.80;;;;;;5066500;28;20094;-66
2021/03/31 05:54:34;;;;;;;30.48;19.85;;;5.30;84.30;;;;;;5070939;28;20381;-66
2021/03/31 05:57:00;;;;;;;27.45;19.65;;;5.40;83.80;;;;;;5071354;28;20037;-67
2021/03/31 05:59:26;;;;;;;26.25;19.58;;;5.40;83.90;;;;;;5071060;28;20060;-66
2021/03/31 06:01:52;;;;;;;26.30;19.73;;;5.50;84.00;;;;;;5069567;28;20530;-66
2021/03/31 06:04:18;;;;;;;28.95;18.80;;;5.50;84.10;;;;;;5070344;28;20703;-66
2021/03/31 06:06:44;;;;;;;26.00;18.63;;;5.70;83.50;;;;;;5069026;28;20044;-66
2021/03/31 06:09:10;;;;;;;32.45;19.42;;;6.10;82.90;;;;;;5070969;28;20109;-66
2021/03/31 06:11:53;;;;;;;22.35;17.40;;;6.30;82.30;;;;;;5068496;28;20665;-66
2021/03/31 06:14:33;;;;;;;21.02;15.60;;;6.70;80.90;;;;;;5070527;28;20469;-66
2021/03/31 06:17:06;;;;;;;19.52;15.70;;;6.80;78.70;;;;;;5069484;28;20028;-66
2021/03/31 06:19:34;;;;;;;19.20;16.30;;;7.00;78.60;;;;;;5069077;28;20117;-66
2021/03/31 06:25:09;;;;;;;20.38;16.80;;;8.10;75.60;;;;;;5068995;28;20052;-65
2021/03/31 06:27:35;;;;;;;19.27;16.00;;;8.90;72.20;;;;;;5070563;28;20473;-65
2021/03/31 06:30:04;;;;;;;19.50;15.98;;;9.60;70.10;;;;;;5069092;28;20036;-65
2021/03/31 06:32:36;;;;;;;22.70;16.33;;;10.20;67.90;;;;;;5070528;28;20068;-65
2021/03/31 06:35:02;;;;;;;17.90;15.93;;;11.10;64.20;;;;;;5070497;28;20041;-65
2021/03/31 06:37:38;;;;;;;21.25;16.05;;;12.00;62.00;;;;;;5068003;28;20372;-65
2021/03/31 06:40:08;;;;;;;19.17;15.60;;;13.00;58.70;;;;;;5068480;28;20041;-65
2021/03/31 06:42:36;;;;;;;19.73;15.60;;;13.90;56.10;;;;;;5069554;28;20033;-65
2021/03/31 06:45:20;;;;;;;19.60;16.08;;;14.50;54.90;;;;;;5069457;28;20067;-65
2021/03/31 06:47:57;;;;;;;19.17;16.98;;;14.90;51.40;;;;;;5068854;28;20052;-65
2021/03/31 06:50:23;;;;;;;19.55;16.30;;;15.30;50.70;;;;;;5066487;28;20044;-65
2021/03/31 06:52:56;;;;;;;22.10;16.75;;;16.00;49.40;;;;;;5065677;28;20048;-65
2021/03/31 06:55:26;;;;;;;18.83;16.45;;;16.50;47.50;;;;;;5069805;28;20115;-65
2021/03/31 06:57:54;;;;;;;23.10;16.52;;;17.10;46.50;;;;;;5069498;28;20048;-65
2021/03/31 07:00:28;;;;;;;18.40;16.45;;;17.50;45.20;;;;;;5071003;28;20115;-65
2021/03/31 07:03:01;;;;;;;20.08;16.40;;;18.00;44.20;;;;;;5070008;28;20032;-66
2021/03/31 07:05:33;;;;;;;17.42;15.63;;;18.50;42.60;;;;;;5065462;28;20036;-66
2021/03/31 07:08:05;;;;;;;22.53;17.30;;;18.80;42.80;;;;;;5069882;28;20037;-66
2021/03/31 07:10:40;;;;;;;;;;;19.30;40.40;;;;;;5069279;28;20794;-66
2021/03/31 07:13:05;;;;;;;21.30;16.95;;;19.70;39.10;;;;;;5069831;28;19974;-66
2021/03/31 07:15:32;;;;;;;20.33;16.98;;;20.40;39.10;;;;;;5070896;28;20064;-66
2021/03/31 07:18:01;;;;;;;20.20;17.10;;;20.60;39.80;;;;;;5070687;28;20040;-66
2021/03/31 07:20:28;;;;;;;21.38;17.25;;;21.30;40.70;;;;;;5068119;28;20032;-66
2021/03/31 07:22:55;;;;;;;24.92;17.65;;;21.70;39.40;;;;;;5070702;28;20047;-66
2021/03/31 07:25:23;;;;;;;18.98;16.40;;;21.70;34.70;;;;;;5073213;28;20056;-66
2021/03/31 07:27:50;;;;;;;19.75;17.50;;;21.70;37.00;;;;;;5073815;28;20048;-66
2021/03/31 07:30:24;;;;;;;20.58;17.05;;;22.30;37.80;;;;;;5074412;28;20165;-67
2021/03/31 07:32:58;;;;;;;20.27;17.58;;;22.00;35.50;;;;;;5074696;28;20055;-66
2021/03/31 07:35:27;;;;;;;22.08;17.42;;;22.40;37.00;;;;;;5074069;28;20044;-66
2021/03/31 07:37:58;;;;;;;19.30;16.42;;;22.90;38.00;;;;;;5073429;28;20068;-66
2021/03/31 07:40:25;;;;;;;20.10;17.40;;;23.00;37.30;;;;;;5072493;28;20568;-66
2021/03/31 07:43:02;;;;;;;22.75;17.15;;;22.90;37.50;;;;;;5071656;28;20037;-66
2021/03/31 07:45:32;;;;;;;19.35;17.25;;;22.40;38.50;;;;;;5066655;28;20036;-66
2021/03/31 07:47:59;;;;;;;21.15;17.15;;;21.30;40.30;;;;;;5072308;28;20041;-66
2021/03/31 07:50:26;;;;;;;19.85;16.95;;;20.20;42.20;;;;;;5071993;28;20036;-66
2021/03/31 07:53:01;;;;;;;19.42;16.50;;;19.40;44.30;;;;;;5074329;28;20044;-66
2021/03/31 07:55:33;;;;;;;19.70;16.55;;;18.70;45.90;;;;;;5072259;28;20042;-65
2021/03/31 07:58:16;;;;;;;22.90;17.58;;;18.10;46.50;;;;;;5073427;28;20048;-66
2021/03/31 08:00:45;;;;;;;22.25;17.17;;;17.70;48.50;;;;;;5070803;28;20098;-66
2021/03/31 08:03:16;;;;;;;29.85;16.73;;;17.40;49.40;;;;;;5073533;28;20089;-66
2021/03/31 08:06:02;;;;;;;20.77;17.48;;;17.20;50.30;;;;;;5073352;28;20028;-66
2021/03/31 08:08:27;;;;;;;19.08;15.60;;;17.00;50.50;;;;;;5073825;28;20041;-65
2021/03/31 08:10:55;;;;;;;21.95;17.92;;;16.80;51.50;;;;;;5073607;28;20036;-65
2021/03/31 08:13:35;;;;;;;22.65;17.45;;;16.60;52.00;;;;;;5072813;28;20048;-65
2021/03/31 08:16:26;;;;;;;20.05;16.40;;;16.50;51.70;;;;;;5072341;28;20109;-65
2021/03/31 08:18:54;;;;;;;27.25;17.95;;;16.40;51.00;;;;;;5069543;28;20040;-66
2021/03/31 08:21:22;;;;;;;22.75;18.33;;;16.40;53.20;;;;;;5073644;28;20048;-65
2021/03/31 08:23:49;;;;;;;25.40;18.35;;;16.40;52.80;;;;;;5073317;28;20036;-65
2021/03/31 08:26:38;;;;;;;22.02;17.73;;;16.40;53.50;;;;;;5072971;28;20494;-65
2021/03/31 08:29:18;;;;;;;21.73;16.40;;;16.40;52.90;;;;;;5073309;28;20139;-66
2021/03/31 08:31:46;;;;;;;21.25;18.65;;;16.50;53.30;;;;;;5073176;28;20385;-66
2021/03/31 08:34:14;;;;;;;26.13;18.67;;;16.50;53.50;;;;;;5071777;28;20040;-66
2021/03/31 08:36:41;;;;;;;22.70;18.52;;;16.50;53.60;;;;;;5073286;28;20138;-66
2021/03/31 08:39:10;;;;;;;24.02;17.65;;;16.60;53.30;;;;;;5071317;28;20044;-65
2021/03/31 08:41:41;;;;;;;23.13;17.85;;;16.70;53.20;;;;;;5071242;28;20039;-66
2021/03/31 08:44:16;;;;;;;23.97;18.57;;;16.70;52.80;;;;;;5070231;28;20043;-66
2021/03/31 08:46:42;;;;;;;22.45;17.42;;;16.80;52.10;;;;;;5070191;28;20321;-66
2021/03/31 08:49:41;;;;;;;26.10;19.48;;;16.90;53.30;;;;;;5072062;28;20824;-65
2021/03/31 08:52:09;;;;;;;22.38;17.58;;;16.90;50.90;;;;;;5036102;28;20378;-66
2021/03/31 08:54:43;;;;;;;23.75;17.95;;;17.00;52.70;;;;;;5079113;28;20119;-66
2021/03/31 08:57:11;;;;;;;27.55;18.88;;;17.10;52.50;;;;;;5062851;28;20028;-66
2021/03/31 08:59:40;;;;;;;25.45;18.65;;;17.20;50.40;;;;;;5064985;28;20044;-65
2021/03/31 09:02:07;;;;;;;25.17;18.30;;;17.30;52.00;;;;;;5064279;28;20037;-65
2021/03/31 09:04:33;;;;;;;24.80;19.05;;;17.40;52.50;;;;;;5062146;28;20147;-65
2021/03/31 09:07:03;;;;;;;21.63;19.02;;;17.50;50.90;;;;;;5068354;28;20093;-65
2021/03/31 09:09:39;;;;;;;21.30;17.92;;;17.60;51.00;;;;;;5065998;28;20059;-68
2021/03/31 09:12:08;;;;;;;24.70;17.67;;;17.70;49.60;;;;;;5066883;28;20032;-65
2021/03/31 09:14:36;;;;;;;23.55;19.08;;;17.70;49.90;;;;;;5068542;28;20492;-65
2021/03/31 09:17:15;;;;;;;21.15;18.02;;;17.70;48.80;;;;;;5072702;28;20600;-66
2021/03/31 09:19:42;;;;;;;24.73;18.85;;;17.90;49.60;;;;;;5069389;28;20570;-66
2021/03/31 09:22:12;;;;;;;23.95;19.45;;;18.00;48.40;;;;;;5071983;28;20090;-66
2021/03/31 09:24:52;;;;;;;26.20;19.80;;;18.00;48.40;;;;;;5067188;28;20048;-65
2021/03/31 09:27:20;;;;;;;25.58;20.13;;;18.20;47.90;;;;;;5069329;28;20032;-66
2021/03/31 09:29:48;;;;;;;26.27;19.25;;;18.20;47.80;;;;;;5063784;28;20127;-65
2021/03/31 09:32:19;;;;;;;27.70;20.13;;;18.30;47.60;;;;;;5067031;28;20114;-65
2021/03/31 09:34:45;;;;;;;24.92;20.00;;;18.30;47.70;;;;;;5069968;28;20036;-65
2021/03/31 09:37:13;;;;;;;27.63;19.58;;;18.50;47.40;;;;;;5069882;28;20496;-65
2021/03/31 09:39:40;;;;;;;24.88;20.00;;;18.50;47.60;;;;;;5071143;28;20078;-65
2021/03/31 09:42:06;;;;;;;25.38;20.77;;;18.60;47.30;;;;;;5068790;28;20047;-66
2021/03/31 09:44:33;;;;;;;23.70;20.10;;;18.60;46.50;;;;;;5070668;28;20535;-65
2021/03/31 09:47:02;;;;;;;24.45;19.83;;;18.70;47.10;;;;;;5074452;28;20496;-65
2021/03/31 09:49:28;;;;;;;25.98;20.63;;;18.90;46.90;;;;;;5067420;28;20517;-66
2021/03/31 09:51:54;;;;;;;28.17;21.20;;;18.90;45.70;;;;;;5068395;28;20119;-65
2021/03/31 09:54:24;;;;;;;25.63;21.33;;;19.00;46.30;;;;;;5068005;28;20040;-65
2021/03/31 09:56:50;;;;;;;27.42;21.02;;;19.10;46.50;;;;;;5067160;28;20068;-65
2021/03/31 09:59:16;;;;;;;29.00;20.92;;;19.30;47.20;;;;;;5068524;28;20032;-66
2021/03/31 10:01:42;;;;;;;25.98;21.42;;;19.30;46.80;;;;;;5068894;28;20082;-65
2021/03/31 10:04:08;;;;;;;25.85;21.10;;;19.40;46.90;;;;;;5064866;28;20734;-65
2021/03/31 10:06:34;;;;;;;27.63;22.40;;;19.50;45.00;;;;;;5068054;28;20036;-65
2021/03/31 10:08:59;;;;;;;29.55;21.67;;;19.60;43.30;;;;;;5066973;28;20025;-65
2021/03/31 10:11:36;;;;;;;30.23;22.02;;;19.80;45.90;;;;;;5061951;28;20044;-66
2021/03/31 10:14:03;;;;;;;29.23;22.52;;;19.80;41.40;;;;;;5068240;28;20044;-66
2021/03/31 10:16:37;;;;;;;27.85;21.95;;;19.90;39.30;;;;;;5056893;28;20032;-66
2021/03/31 10:19:05;;;;;;;27.48;21.65;;;20.00;39.10;;;;;;5056903;28;20053;-66
2021/03/31 10:21:33;;;;;;;30.45;21.73;;;20.10;41.10;;;;;;5054646;28;20049;-66
2021/03/31 10:24:01;;;;;;;27.55;21.38;;;20.10;40.10;;;;;;5065756;28;20113;-65
2021/03/31 10:26:27;;;;;;;25.63;21.40;;;20.20;42.10;;;;;;5070701;28;20048;-66
2021/03/31 10:29:03;;;;;;;25.60;21.50;;;20.30;43.90;;;;;;5057226;28;20048;-66
2021/03/31 10:31:31;;;;;;;27.00;22.23;;;20.40;43.20;;;;;;5068467;28;20086;-66
2021/03/31 10:33:57;;;;;;;24.95;21.13;;;20.50;41.00;;;;;;5068814;28;20076;-66
2021/03/31 10:36:44;;;;;;;24.63;20.35;;;20.60;43.10;;;;;;5076881;28;20104;-66
2021/03/31 10:39:47;;;;;;;29.02;21.58;;;20.70;43.10;;;;;;5071502;28;20494;-66
2021/03/31 10:48:14;;;;;;;30.00;20.95;;;21.00;43.20;;;;;;5066103;28;20051;-66
2021/03/31 10:50:49;;;;;;;24.58;21.02;;;21.00;44.10;;;;;;5065661;28;20044;-66
2021/03/31 10:53:14;;;;;;;24.58;19.95;;;21.10;44.20;;;;;;5067927;28;20133;-66
2021/03/31 10:55:42;;;;;;;27.50;21.00;;;21.20;44.50;;;;;;5068291;28;20068;-66
2021/03/31 10:58:10;;;;;;;26.13;21.40;;;21.30;44.40;;;;;;5065619;28;20481;-66
2021/03/31 11:00:36;;;;;;;26.08;22.20;;;21.50;43.60;;;;;;5068168;28;20151;-65
2021/03/31 11:03:03;;;;;;;32.00;23.42;;;21.50;43.90;;;;;;5065971;28;20025;-66
2021/03/31 11:05:29;;;;;;;29.17;21.98;;;21.50;43.10;;;;;;5065336;28;20044;-66
2021/03/31 11:07:54;;;;;;;28.70;21.95;;;21.50;43.70;;;;;;5070091;28;20036;-66
2021/03/31 11:10:20;;;;;;;28.95;22.95;;;21.60;43.10;;;;;;5067474;28;20067;-66
2021/03/31 11:12:46;;;;;;;31.33;21.52;;;21.70;43.30;;;;;;5068159;28;20230;-65
2021/03/31 11:15:15;;;;;;;28.45;22.80;;;21.70;43.80;;;;;;5065903;28;20115;-66
2021/03/31 11:25:56;;;;;;;30.65;22.10;;;22.00;43.40;;;;;;5063344;28;20522;-66
2021/03/31 11:28:23;;;;;;;31.05;23.42;;;22.00;43.00;;;;;;5068773;28;20115;-65
2021/03/31 11:30:49;;;;;;;26.92;21.38;;;22.10;43.20;;;;;;5068813;28;20059;-66
2021/03/31 11:33:16;;;;;;;30.50;24.05;;;22.10;42.30;;;;;;5067968;28;20436;-66
2021/03/31 11:36:02;;;;;;;31.63;23.38;;;22.10;34.80;;;;;;5067844;28;20044;-66
2021/03/31 11:38:28;;;;;;;27.88;20.70;;;22.10;38.60;;;;;;5065647;28;20043;-66
2021/03/31 11:40:54;;;;;;;30.52;21.27;;;22.20;34.70;;;;;;5066132;28;20116;-65
2021/03/31 11:43:39;;;;;;;28.88;21.80;;;22.20;36.90;;;;;;5063699;28;20040;-66
2021/03/31 11:46:05;;;;;;;27.95;19.92;;;22.30;33.10;;;;;;5066992;28;20086;-66
2021/03/31 11:48:51;;;;;;;20.80;17.58;;;22.40;38.20;;;;;;5066398;28;20134;-66
2021/03/31 11:51:16;;;;;;;21.95;16.58;;;22.40;28.10;;;;;;5069102;28;20048;-66
2021/03/31 11:53:42;;;;;;;20.15;15.07;;;22.60;38.20;;;;;;5066653;28;20043;-66
2021/03/31 11:56:08;;;;;;;23.02;18.00;;;22.50;25.10;;;;;;5065193;28;20047;-68
2021/03/31 11:58:54;;;;;;;22.70;16.88;;;22.60;35.80;;;;;;5058010;28;20143;-68
2021/03/31 12:01:19;;;;;;;28.25;19.52;;;22.70;32.40;;;;;;5078268;28;20517;-68
2021/03/31 12:03:45;;;;;;;25.73;19.08;;;22.70;36.10;;;;;;5071539;28;20036;-68
2021/03/31 12:06:31;;;;;;;25.40;19.58;;;22.70;36.00;;;;;;5051104;28;20101;-67
2021/03/31 12:09:16;;;;;;;22.20;18.48;;;22.80;39.20;;;;;;5058397;28;20135;-67
2021/03/31 12:12:02;;;;;;;26.05;19.50;;;22.90;39.40;;;;;;5068919;28;20048;-68
2021/03/31 12:14:28;;;;;;;20.92;15.27;;;23.00;38.30;;;;;;5070107;28;20039;-67
2021/03/31 12:17:13;;;;;;;14.65;11.98;;;22.90;36.80;;;;;;5070127;28;20185;-67
2021/03/31 12:19:39;;;;;;;15.18;11.32;;;22.90;32.10;;;;;;5071301;28;20119;-67
2021/03/31 12:22:05;;;;;;;16.35;13.25;;;23.00;36.80;;;;;;5067288;28;20044;-68
2021/03/31 12:24:50;;;;;;;21.38;15.25;;;22.90;31.50;;;;;;5065395;28;21764;-67
2021/03/31 12:27:38;;;;;;;24.30;17.35;;;22.90;37.30;;;;;;5068922;28;20143;-68
2021/03/31 12:30:08;;;;;;;21.23;16.60;;;22.80;33.10;;;;;;5068647;28;20072;-67
2021/03/31 12:32:33;;;;;;;25.67;19.05;;;23.00;37.20;;;;;;5069755;28;20044;-67
2021/03/31 12:35:00;;;;;;;20.80;15.38;;;23.10;38.50;;;;;;5073358;28;20154;-67
2021/03/31 12:37:45;;;;;;;25.13;17.80;;;23.00;38.30;;;;;;5067053;28;20429;-67
2021/03/31 12:40:31;;;;;;;22.35;18.63;;;23.10;38.80;;;;;;5059744;22;20080;-69
2021/03/31 12:43:17;;;;;;;29.05;20.25;;;23.10;33.10;;;;;;5032352;28;20101;-69
2021/03/31 12:45:42;;;;;;;27.20;20.55;;;23.20;38.70;;;;;;5049002;28;20079;-69
2021/03/31 12:48:08;;;;;;;28.70;21.35;;;23.20;37.80;;;;;;5046315;28;20048;-68
2021/03/31 12:50:36;;;;;;;27.42;20.70;;;23.10;31.20;;;;;;5049990;28;20581;-68
2021/03/31 12:53:04;;;;;;;24.63;18.50;;;23.10;34.00;;;;;;5050059;28;20043;-69
2021/03/31 12:55:34;;;;;;;25.02;19.13;;;23.20;39.10;;;;;;5048023;28;20037;-69
2021/03/31 12:58:05;;;;;;;24.40;19.23;;;23.20;38.80;;;;;;5044012;28;20477;-69
2021/03/31 13:00:53;;;;;;;30.52;21.02;;;23.30;39.20;;;;;;5050266;28;20076;-69
2021/03/31 13:03:19;;;;;;;26.50;19.95;;;23.30;31.80;;;;;;5046925;28;20052;-68